Time;durP1;ratioP1;P1;durP2;ratioP2;P2;SDS_P1;SDS_P2;PMS_P1;PMS_P2;Temp;Humidity;BMP_temperature;BMP_pressure;BME280_temperature;BME280_humidity;BME280_pressure;Samples;Min_cycle;Max_cycle;Signal;HPM_P1;HPM_P2
2023/10/15 00:01:53;;;;;;;0.47;0.25;;;7.90;99.90;;;;;;4987051;28;20074;-81
2023/10/15 00:04:20;;;;;;;0.40;0.20;;;7.90;99.90;;;;;;4987749;28;20038;-81
2023/10/15 00:06:46;;;;;;;0.75;0.45;;;7.90;99.90;;;;;;4987986;28;20092;-81
2023/10/15 00:09:13;;;;;;;0.10;0.10;;;7.80;99.90;;;;;;4988069;28;20517;-81
2023/10/15 00:11:40;;;;;;;0.32;0.15;;;7.80;99.90;;;;;;4986291;28;20106;-81
2023/10/15 00:14:06;;;;;;;0.30;0.17;;;7.80;99.90;;;;;;5053776;28;20053;-81
2023/10/15 00:16:33;;;;;;;1.90;0.28;;;7.80;99.90;;;;;;5054862;28;20043;-81
2023/10/15 00:19:09;;;;;;;0.15;0.15;;;7.80;99.90;;;;;;5053944;28;20046;-82
2023/10/15 00:21:35;;;;;;;0.77;0.15;;;7.80;99.90;;;;;;5054693;28;20117;-81
2023/10/15 00:24:02;;;;;;;0.57;0.57;;;7.80;99.90;;;;;;5054141;28;20057;-81
2023/10/15 00:26:27;;;;;;;0.35;0.15;;;7.80;99.90;;;;;;5054007;28;20054;-81
2023/10/15 00:28:55;;;;;;;0.20;0.10;;;7.80;99.90;;;;;;5054717;28;20046;-81
2023/10/15 00:31:21;;;;;;;0.55;0.50;;;7.80;99.90;;;;;;4987705;28;20095;-81
2023/10/15 00:33:47;;;;;;;0.45;0.20;;;7.80;99.90;;;;;;4986698;28;20050;-82
2023/10/15 00:36:13;;;;;;;1.95;0.38;;;7.80;99.90;;;;;;4987671;28;20038;-82
2023/10/15 00:38:43;;;;;;;0.95;0.20;;;7.80;99.90;;;;;;4987527;28;20277;-81
2023/10/15 00:41:13;;;;;;;0.15;0.15;;;7.80;99.90;;;;;;4979955;28;20047;-81
2023/10/15 00:43:54;;;;;;;2.08;0.45;;;7.80;99.90;;;;;;4987541;28;20042;-81
2023/10/15 00:46:26;;;;;;;0.85;0.30;;;7.80;99.90;;;;;;4987432;28;20057;-81
2023/10/15 00:48:56;;;;;;;0.17;0.17;;;7.80;99.90;;;;;;4986655;28;20735;-81
2023/10/15 00:51:22;;;;;;;;;;;7.80;99.90;;;;;;4988170;28;20117;-81
2023/10/15 00:53:58;;;;;;;2.08;0.63;;;7.80;99.90;;;;;;4986757;28;19917;-80
2023/10/15 00:56:33;;;;;;;1.13;0.20;;;7.80;99.90;;;;;;5054767;28;20046;-81
2023/10/15 01:01:34;;;;;;;0.25;0.25;;;7.80;99.90;;;;;;5053615;28;20058;-81
2023/10/15 01:04:02;;;;;;;5.13;0.50;;;7.80;99.90;;;;;;5053884;28;20609;-81
2023/10/15 01:06:32;;;;;;;0.10;0.10;;;7.80;99.90;;;;;;4986374;28;20510;-81
2023/10/15 01:09:08;;;;;;;3.55;0.95;;;7.90;99.90;;;;;;4986448;28;20050;-81
2023/10/15 01:11:43;;;;;;;0.50;0.10;;;7.90;99.90;;;;;;4987189;28;20099;-81
2023/10/15 01:14:25;;;;;;;0.20;0.20;;;7.90;99.90;;;;;;4987213;28;20057;-81
2023/10/15 01:16:55;;;;;;;2.28;0.22;;;7.80;99.90;;;;;;4986895;28;20042;-81
2023/10/15 01:19:31;;;;;;;1.15;0.52;;;7.80;99.90;;;;;;4986900;28;20078;-81
2023/10/15 01:21:58;;;;;;;0.17;0.17;;;7.80;99.90;;;;;;4986902;28;20074;-81
2023/10/15 01:24:25;;;;;;;0.30;0.20;;;7.70;99.90;;;;;;4990151;28;20091;-81
2023/10/15 01:29:33;;;;;;;4.60;0.22;;;7.60;99.90;;;;;;4989670;28;20054;-81
2023/10/15 01:32:02;;;;;;;0.88;0.38;;;7.50;99.90;;;;;;5057538;28;20058;-81
2023/10/15 01:34:29;;;;;;;0.75;0.20;;;7.40;99.90;;;;;;5057353;28;20046;-81
2023/10/15 01:36:57;;;;;;;0.90;0.25;;;7.40;99.90;;;;;;5056556;28;20518;-81
2023/10/15 01:39:37;;;;;;;1.05;0.22;;;7.30;99.90;;;;;;5057424;28;20057;-81
2023/10/15 01:42:04;;;;;;;1.77;0.32;;;7.20;99.90;;;;;;4989969;28;20047;-81
2023/10/15 01:44:30;;;;;;;0.57;0.40;;;7.10;99.90;;;;;;4988862;28;20104;-81
2023/10/15 01:49:32;;;;;;;2.50;0.73;;;6.90;99.90;;;;;;4989686;28;20098;-81
2023/10/15 01:52:05;;;;;;;2.05;0.60;;;6.90;99.90;;;;;;5056660;28;20526;-81
2023/10/15 01:54:32;;;;;;;2.00;0.52;;;6.80;99.90;;;;;;4989944;28;20039;-81
2023/10/15 01:57:00;;;;;;;0.70;0.43;;;6.70;99.90;;;;;;4989293;28;20559;-81
2023/10/15 01:59:27;;;;;;;3.85;0.40;;;6.60;99.90;;;;;;4989709;28;20061;-81
2023/10/15 02:01:52;;;;;;;3.30;0.55;;;6.60;99.90;;;;;;4989487;28;20042;-81
2023/10/15 02:04:27;;;;;;;0.60;0.35;;;6.50;99.90;;;;;;5056267;28;20045;-81
2023/10/15 02:06:53;;;;;;;0.50;0.20;;;6.40;99.90;;;;;;4989220;28;20045;-81
2023/10/15 02:09:22;;;;;;;0.63;0.30;;;6.30;99.90;;;;;;5056352;28;20050;-81
2023/10/15 02:11:54;;;;;;;0.97;0.30;;;6.30;99.90;;;;;;5056233;28;20056;-81
2023/10/15 02:14:21;;;;;;;0.20;0.20;;;6.20;99.90;;;;;;5056818;28;20781;-81
2023/10/15 02:16:50;;;;;;;0.22;0.10;;;6.10;99.90;;;;;;4989420;28;20042;-81
2023/10/15 02:22:06;;;;;;;0.85;0.30;;;6.10;99.90;;;;;;4989679;28;20099;-82
2023/10/15 02:24:33;;;;;;;4.30;0.50;;;6.10;99.90;;;;;;4989312;28;20397;-81
2023/10/15 02:27:04;;;;;;;0.68;0.45;;;6.00;99.90;;;;;;5056121;28;20432;-81
2023/10/15 02:32:07;;;;;;;1.15;0.43;;;6.00;99.90;;;;;;5056043;28;20102;-82
2023/10/15 02:34:40;;;;;;;0.22;0.20;;;6.00;99.90;;;;;;5055648;28;20089;-81
2023/10/15 02:37:10;;;;;;;1.02;0.47;;;6.00;99.90;;;;;;5056953;28;20038;-81
2023/10/15 02:39:44;;;;;;;0.50;0.20;;;5.90;99.90;;;;;;4988272;28;20046;-81
2023/10/15 02:42:10;;;;;;;0.20;0.20;;;5.90;99.90;;;;;;4989143;28;20093;-81
2023/10/15 02:44:38;;;;;;;0.20;0.20;;;5.90;99.90;;;;;;4990134;28;20139;-93
2023/10/15 02:47:10;;;;;;;0.10;0.10;;;5.80;99.90;;;;;;5056574;28;20565;-81
2023/10/15 02:49:53;;;;;;;0.10;0.10;;;5.80;99.90;;;;;;4990571;28;20053;-81
2023/10/15 02:52:24;;;;;;;0.20;0.20;;;5.80;99.90;;;;;;4990305;28;20623;-81
2023/10/15 02:54:50;;;;;;;0.65;0.28;;;5.80;99.90;;;;;;4988896;28;20099;-80
2023/10/15 02:57:16;;;;;;;0.20;0.20;;;5.80;99.90;;;;;;4977746;28;20039;-81
2023/10/15 02:59:52;;;;;;;0.10;0.10;;;5.80;99.90;;;;;;4970921;28;20050;-81
2023/10/15 03:02:19;;;;;;;0.38;0.30;;;5.90;99.90;;;;;;4970239;28;20561;-81
2023/10/15 03:04:51;;;;;;;1.25;0.50;;;5.90;99.90;;;;;;4970072;28;20030;-81
2023/10/15 03:07:19;;;;;;;0.10;0.10;;;5.90;99.90;;;;;;4969115;28;20116;-81
2023/10/15 03:09:57;;;;;;;0.40;0.10;;;6.00;99.90;;;;;;4969301;28;20391;-81
2023/10/15 03:12:24;;;;;;;1.75;0.30;;;6.00;99.90;;;;;;4969121;28;20077;-81
2023/10/15 03:14:51;;;;;;;1.23;0.30;;;6.00;99.90;;;;;;4969173;28;20764;-80
2023/10/15 03:17:29;;;;;;;0.32;0.32;;;6.00;99.90;;;;;;5036503;28;20078;-81
2023/10/15 03:20:10;;;;;;;0.52;0.28;;;6.00;99.90;;;;;;4969143;28;20490;-81
2023/10/15 03:22:37;;;;;;;1.85;0.40;;;6.00;99.90;;;;;;4973364;28;20035;-81
2023/10/15 03:25:13;;;;;;;2.38;0.20;;;5.90;99.90;;;;;;4989062;28;20042;-80
2023/10/15 03:27:46;;;;;;;1.67;0.30;;;5.90;99.90;;;;;;4989323;28;20046;-80
2023/10/15 03:30:13;;;;;;;0.43;0.22;;;5.90;99.90;;;;;;4988212;28;20125;-81
2023/10/15 03:32:46;;;;;;;0.55;0.25;;;5.80;99.90;;;;;;4988358;28;20049;-80
2023/10/15 03:38:13;;;;;;;0.20;0.20;;;5.70;99.90;;;;;;5038436;28;20046;-80
2023/10/15 03:40:46;;;;;;;1.02;0.20;;;5.70;99.90;;;;;;4988765;28;20047;-81
2023/10/15 03:43:15;;;;;;;5.45;0.55;;;5.60;99.90;;;;;;5034464;28;20031;-80
2023/10/15 03:45:53;;;;;;;0.43;0.22;;;5.60;99.90;;;;;;4968976;28;20055;-81
2023/10/15 03:48:29;;;;;;;3.00;0.20;;;5.60;99.90;;;;;;4969479;28;20047;-80
2023/10/15 03:50:58;;;;;;;0.17;0.13;;;5.50;99.90;;;;;;4968045;28;20125;-80
2023/10/15 03:53:34;;;;;;;1.02;0.32;;;5.40;99.90;;;;;;4969332;28;20065;-81
2023/10/15 03:56:03;;;;;;;0.30;0.20;;;5.40;99.90;;;;;;4969999;28;20053;-80
2023/10/15 03:58:31;;;;;;;0.20;0.10;;;5.40;99.90;;;;;;5054292;28;20062;-81
2023/10/15 04:01:20;;;;;;;0.38;0.30;;;5.30;99.90;;;;;;5056124;28;20112;-81
2023/10/15 04:03:48;;;;;;;1.77;0.20;;;5.30;99.90;;;;;;4988742;28;20046;-81
2023/10/15 04:06:19;;;;;;;1.98;0.20;;;5.30;99.90;;;;;;5056212;28;20042;-81
2023/10/15 04:11:30;;;;;;;0.17;0.17;;;5.40;99.90;;;;;;5055063;28;19917;-81
2023/10/15 04:13:57;;;;;;;0.32;0.22;;;5.40;99.90;;;;;;4987031;28;20038;-81
2023/10/15 04:16:23;;;;;;;0.63;0.20;;;5.40;99.90;;;;;;5055041;28;20049;-80
2023/10/15 04:18:49;;;;;;;4.47;0.20;;;5.50;99.90;;;;;;4987444;28;20054;-80
2023/10/15 04:21:16;;;;;;;0.32;0.30;;;5.60;99.90;;;;;;4988271;28;20054;-80
2023/10/15 04:23:49;;;;;;;0.47;0.15;;;5.70;99.90;;;;;;4987459;28;20056;-80
2023/10/15 04:26:15;;;;;;;3.72;0.50;;;6.00;99.90;;;;;;4988342;28;20045;-80
2023/10/15 04:28:41;;;;;;;1.50;0.40;;;6.20;99.90;;;;;;5055552;28;20126;-80
2023/10/15 04:31:21;;;;;;;3.42;0.30;;;6.40;99.90;;;;;;5054832;28;20104;-80
2023/10/15 04:33:50;;;;;;;2.50;0.32;;;6.60;99.90;;;;;;4988221;28;20047;-80
2023/10/15 04:36:19;;;;;;;0.10;0.10;;;6.70;99.90;;;;;;4988788;28;20049;-80
2023/10/15 04:38:45;;;;;;;0.40;0.10;;;6.80;99.90;;;;;;4987864;28;20088;-80
2023/10/15 04:41:11;;;;;;;0.20;0.20;;;6.90;99.90;;;;;;4984415;28;20452;-80
2023/10/15 04:43:45;;;;;;;0.93;0.20;;;6.90;99.90;;;;;;4968781;28;20305;-80
2023/10/15 04:46:25;;;;;;;3.60;0.30;;;6.90;99.90;;;;;;4979784;28;20171;-80
2023/10/15 04:48:52;;;;;;;0.63;0.22;;;6.90;99.90;;;;;;4988427;28;20085;-80
2023/10/15 04:51:18;;;;;;;6.45;0.65;;;7.00;99.90;;;;;;4988138;28;20047;-80
2023/10/15 04:53:50;;;;;;;1.17;0.20;;;7.00;99.90;;;;;;5053696;28;20390;-80
2023/10/15 04:56:16;;;;;;;0.90;0.20;;;7.00;99.90;;;;;;4987929;28;20039;-80
2023/10/15 04:58:42;;;;;;;0.35;0.20;;;7.00;99.90;;;;;;4991126;28;20052;-80
2023/10/15 05:01:08;;;;;;;3.13;0.35;;;7.00;99.90;;;;;;4990301;28;20121;-80
2023/10/15 05:03:38;;;;;;;0.10;0.10;;;7.10;99.90;;;;;;4998190;28;20039;-80
2023/10/15 05:06:11;;;;;;;0.47;0.15;;;7.00;99.90;;;;;;4990595;28;20054;-80
2023/10/15 05:08:39;;;;;;;0.43;0.43;;;7.00;99.90;;;;;;4991166;28;20502;-80
2023/10/15 05:11:07;;;;;;;3.00;0.45;;;6.90;99.90;;;;;;4991171;28;20050;-80
2023/10/15 05:13:32;;;;;;;0.10;0.10;;;6.90;99.90;;;;;;4994829;28;20252;-80
2023/10/15 05:15:58;;;;;;;0.10;0.10;;;6.90;99.90;;;;;;4990361;28;20397;-80
2023/10/15 05:18:26;;;;;;;3.22;0.30;;;6.80;99.90;;;;;;5057316;28;20043;-81
2023/10/15 05:20:51;;;;;;;1.70;0.20;;;6.80;99.90;;;;;;4989977;28;20116;-80
2023/10/15 05:23:18;;;;;;;0.20;0.17;;;6.70;99.90;;;;;;4990613;28;20066;-81
2023/10/15 05:25:45;;;;;;;1.02;0.20;;;6.70;99.90;;;;;;4990214;28;20038;-81
2023/10/15 05:28:14;;;;;;;0.32;0.20;;;6.60;99.90;;;;;;4989422;28;20039;-80
2023/10/15 05:30:41;;;;;;;1.80;0.32;;;6.60;99.90;;;;;;4990412;28;20061;-80
2023/10/15 05:33:11;;;;;;;0.28;0.20;;;6.60;99.90;;;;;;4989945;28;20474;-80
2023/10/15 05:35:37;;;;;;;0.47;0.10;;;6.60;99.90;;;;;;4989512;28;20508;-80
2023/10/15 05:38:08;;;;;;;0.25;0.13;;;6.60;99.90;;;;;;4989982;28;20038;-80
2023/10/15 05:40:35;;;;;;;0.38;0.20;;;6.70;99.90;;;;;;4989879;28;20084;-81
2023/10/15 05:43:00;;;;;;;0.25;0.25;;;6.70;99.90;;;;;;4987812;28;20050;-81
2023/10/15 05:45:27;;;;;;;0.73;0.20;;;6.70;99.90;;;;;;4989310;28;20038;-80
2023/10/15 05:47:52;;;;;;;2.80;0.20;;;6.70;99.90;;;;;;4988710;28;20081;-79
2023/10/15 05:50:18;;;;;;;4.43;0.60;;;6.70;99.90;;;;;;4989241;28;20042;-79
2023/10/15 05:52:45;;;;;;;0.10;0.10;;;6.80;99.90;;;;;;4989397;28;20050;-79
2023/10/15 05:55:11;;;;;;;1.85;0.30;;;6.70;99.90;;;;;;5055174;28;20042;-80
2023/10/15 05:57:40;;;;;;;0.10;0.10;;;6.70;99.90;;;;;;5055790;28;20043;-80
2023/10/15 06:00:18;;;;;;;0.00;0.00;;;6.70;99.90;;;;;;4988997;28;20047;-79
2023/10/15 06:02:50;;;;;;;0.45;0.20;;;6.60;99.90;;;;;;4988378;28;20042;-79
2023/10/15 06:05:16;;;;;;;0.10;0.10;;;6.60;99.90;;;;;;5056613;28;20042;-80
2023/10/15 06:07:45;;;;;;;0.10;0.10;;;6.60;99.90;;;;;;5056347;28;20432;-82
2023/10/15 06:10:12;;;;;;;0.08;0.08;;;6.50;99.90;;;;;;5054266;28;20046;-80
2023/10/15 06:12:41;;;;;;;0.45;0.10;;;6.60;99.90;;;;;;4989505;28;20038;-80
2023/10/15 06:15:08;;;;;;;0.57;0.08;;;6.60;99.90;;;;;;5056782;28;20489;-80
2023/10/15 06:17:34;;;;;;;0.45;0.05;;;6.50;99.90;;;;;;4988524;28;20050;-81
2023/10/15 06:20:12;;;;;;;0.10;0.10;;;6.50;99.90;;;;;;4988427;28;20049;-81
2023/10/15 06:22:49;;;;;;;1.17;0.30;;;6.60;99.90;;;;;;4988480;28;20046;-80
2023/10/15 06:25:19;;;;;;;1.50;0.13;;;6.60;99.90;;;;;;4989170;28;20402;-81
2023/10/15 06:27:45;;;;;;;1.10;0.32;;;6.60;99.90;;;;;;4989082;28;20125;-80
2023/10/15 06:30:14;;;;;;;0.10;0.10;;;6.60;99.90;;;;;;4988733;28;20049;-80
2023/10/15 06:32:50;;;;;;;0.10;0.10;;;6.60;99.90;;;;;;4988929;28;20039;-80
2023/10/15 06:35:20;;;;;;;0.68;0.20;;;6.60;99.90;;;;;;4989400;28;20038;-81
2023/10/15 06:37:50;;;;;;;0.57;0.17;;;6.60;99.90;;;;;;4988524;28;20034;-80
2023/10/15 06:40:16;;;;;;;;;;;6.60;99.90;;;;;;5056883;28;20050;-80
2023/10/15 06:42:46;;;;;;;0.00;0.00;;;6.60;99.90;;;;;;5057116;28;19925;-80
2023/10/15 06:45:18;;;;;;;1.77;0.10;;;6.60;99.90;;;;;;4987992;28;20093;-79
2023/10/15 06:47:45;;;;;;;0.10;0.10;;;6.60;99.90;;;;;;4989334;28;20183;-80
2023/10/15 06:50:11;;;;;;;0.93;0.20;;;6.60;99.90;;;;;;4989040;28;20039;-80
2023/10/15 06:52:39;;;;;;;0.15;0.15;;;6.60;99.90;;;;;;4988766;28;20095;-80
2023/10/15 06:55:07;;;;;;;1.90;0.20;;;6.60;99.90;;;;;;4989532;28;20065;-80
2023/10/15 06:57:38;;;;;;;2.50;0.20;;;6.70;99.90;;;;;;4988551;28;20268;-80
2023/10/15 07:00:09;;;;;;;2.72;0.20;;;6.70;99.90;;;;;;4988517;28;20042;-80
2023/10/15 07:02:35;;;;;;;0.90;0.20;;;6.70;99.90;;;;;;4988541;28;20050;-81
2023/10/15 07:05:04;;;;;;;1.23;0.17;;;6.80;99.90;;;;;;5055498;28;20042;-81
2023/10/15 07:07:32;;;;;;;1.98;1.48;;;6.80;99.90;;;;;;4988931;28;20045;-81
2023/10/15 07:10:01;;;;;;;1.10;0.45;;;6.80;99.90;;;;;;4988834;28;20046;-81
2023/10/15 07:12:27;;;;;;;0.17;0.17;;;6.80;99.90;;;;;;4996933;28;20046;-81
2023/10/15 07:14:52;;;;;;;3.13;0.20;;;6.80;99.90;;;;;;5056610;28;20046;-81
2023/10/15 07:17:18;;;;;;;0.28;0.28;;;6.70;99.90;;;;;;4988827;28;20042;-82
2023/10/15 07:19:44;;;;;;;0.08;0.08;;;6.80;99.90;;;;;;4987315;28;20043;-82
2023/10/15 07:22:10;;;;;;;0.32;0.20;;;6.80;99.90;;;;;;4987091;28;20505;-81
2023/10/15 07:24:36;;;;;;;0.13;0.13;;;6.90;99.90;;;;;;4987844;28;20038;-82
2023/10/15 07:27:04;;;;;;;0.30;0.20;;;7.00;99.90;;;;;;4986522;28;20042;-81
2023/10/15 07:29:30;;;;;;;0.30;0.10;;;7.10;99.90;;;;;;4985269;28;20050;-81
2023/10/15 07:31:56;;;;;;;0.10;0.10;;;7.30;99.90;;;;;;5051990;28;20125;-81
2023/10/15 07:34:26;;;;;;;0.20;0.20;;;7.40;99.90;;;;;;4984520;28;20117;-81
2023/10/15 07:36:56;;;;;;;0.43;0.10;;;7.50;99.90;;;;;;4984153;28;20054;-81
2023/10/15 07:39:27;;;;;;;0.75;0.20;;;7.70;99.90;;;;;;4984245;28;20076;-82
2023/10/15 07:41:53;;;;;;;0.10;0.10;;;7.80;99.90;;;;;;4988186;28;20069;-81
2023/10/15 07:44:19;;;;;;;0.88;0.15;;;8.00;99.90;;;;;;4984774;28;20402;-82
2023/10/15 07:46:45;;;;;;;0.20;0.10;;;8.20;99.90;;;;;;4984870;28;20057;-82
2023/10/15 07:49:15;;;;;;;0.35;0.20;;;8.30;99.90;;;;;;4984016;28;20088;-83
2023/10/15 07:51:41;;;;;;;0.73;0.20;;;8.40;99.90;;;;;;4984772;28;20393;-83
2023/10/15 07:54:07;;;;;;;0.85;0.20;;;8.50;99.90;;;;;;4984543;28;20042;-83
2023/10/15 07:56:34;;;;;;;0.28;0.20;;;8.70;99.90;;;;;;4984346;28;20038;-81
2023/10/15 07:59:04;;;;;;;2.72;0.65;;;8.80;99.90;;;;;;4984477;28;20103;-81
2023/10/15 08:01:31;;;;;;;2.65;0.47;;;9.00;99.90;;;;;;5052610;28;20489;-81
2023/10/15 08:03:59;;;;;;;0.28;0.20;;;9.00;99.90;;;;;;5051838;28;20046;-81
2023/10/15 08:06:25;;;;;;;1.10;0.60;;;9.00;99.90;;;;;;5050274;28;20043;-82
2023/10/15 08:08:51;;;;;;;0.55;0.28;;;9.00;99.90;;;;;;5051217;28;20123;-81
2023/10/15 08:11:17;;;;;;;1.77;0.70;;;9.00;99.90;;;;;;4984862;28;20477;-82
2023/10/15 08:13:43;;;;;;;4.22;2.00;;;9.00;99.90;;;;;;5051768;28;20045;-82
2023/10/15 08:16:09;;;;;;;3.92;2.47;;;9.10;99.90;;;;;;5050895;28;20039;-82
2023/10/15 08:18:35;;;;;;;3.50;0.73;;;9.50;99.90;;;;;;4984533;28;20090;-82
2023/10/15 08:21:00;;;;;;;2.53;1.33;;;9.80;99.90;;;;;;4984223;28;20052;-82
2023/10/15 08:23:27;;;;;;;1.30;0.60;;;10.10;99.90;;;;;;4983711;28;20543;-82
2023/10/15 08:25:53;;;;;;;0.40;0.30;;;10.30;99.90;;;;;;4983191;28;20557;-82
2023/10/15 08:28:19;;;;;;;3.45;0.57;;;10.60;99.90;;;;;;5051541;28;20043;-82
2023/10/15 08:30:45;;;;;;;1.42;0.75;;;11.00;99.90;;;;;;5050220;28;20562;-82
2023/10/15 08:33:12;;;;;;;0.68;0.30;;;11.40;99.90;;;;;;4986861;28;20072;-83
2023/10/15 08:35:38;;;;;;;3.25;0.30;;;11.70;99.90;;;;;;5055716;28;20045;-82
2023/10/15 08:38:07;;;;;;;0.20;0.20;;;12.00;99.90;;;;;;4987600;28;20129;-82
2023/10/15 08:40:39;;;;;;;0.55;0.35;;;11.70;99.90;;;;;;4987629;28;20038;-82
2023/10/15 08:43:23;;;;;;;0.65;0.25;;;11.20;99.90;;;;;;4986821;28;20031;-83
2023/10/15 08:45:51;;;;;;;1.25;0.32;;;10.70;99.90;;;;;;4987785;28;20093;-82
2023/10/15 08:48:18;;;;;;;0.85;0.30;;;10.20;99.90;;;;;;4987336;28;20053;-82
2023/10/15 08:50:46;;;;;;;0.47;0.10;;;9.80;99.90;;;;;;4987252;28;20034;-86
2023/10/15 08:53:13;;;;;;;1.08;0.52;;;9.50;99.90;;;;;;5054889;28;20042;-83
2023/10/15 08:55:41;;;;;;;2.72;0.20;;;9.20;99.90;;;;;;5037429;28;20470;-82
2023/10/15 08:58:09;;;;;;;0.40;0.20;;;9.10;99.90;;;;;;4986362;28;20042;-83
2023/10/15 09:00:38;;;;;;;0.10;0.10;;;9.00;99.90;;;;;;4986979;28;20542;-82
2023/10/15 09:03:04;;;;;;;;;;;9.20;99.90;;;;;;4987959;28;20437;-82
2023/10/15 09:05:33;;;;;;;1.42;0.60;;;10.30;99.90;;;;;;4987125;28;19921;-82
2023/10/15 09:08:12;;;;;;;4.38;0.50;;;11.30;99.90;;;;;;5054757;28;20053;-83
2023/10/15 09:10:42;;;;;;;3.28;0.50;;;12.40;99.90;;;;;;5055030;28;20118;-83
2023/10/15 09:13:15;;;;;;;1.25;0.70;;;13.30;99.90;;;;;;5054164;28;20042;-83
2023/10/15 09:15:46;;;;;;;2.78;0.93;;;13.60;99.90;;;;;;5054969;28;20493;-82
2023/10/15 09:18:15;;;;;;;1.70;0.65;;;13.30;99.90;;;;;;4987256;28;20113;-81
2023/10/15 09:20:44;;;;;;;2.10;0.93;;;12.80;99.90;;;;;;4988202;28;20074;-81
2023/10/15 09:23:10;;;;;;;1.70;0.30;;;12.20;99.90;;;;;;4987411;28;20931;-81
2023/10/15 09:25:36;;;;;;;0.77;0.40;;;11.80;99.90;;;;;;4985527;28;20045;-81
2023/10/15 09:28:03;;;;;;;1.35;0.60;;;11.40;99.90;;;;;;5053864;28;20034;-80
2023/10/15 09:30:32;;;;;;;0.95;0.55;;;10.80;99.90;;;;;;4987178;28;20038;-81
2023/10/15 09:32:58;;;;;;;1.25;0.90;;;10.30;99.90;;;;;;4985447;28;20505;-81
2023/10/15 09:35:25;;;;;;;3.40;1.30;;;9.80;99.90;;;;;;4986351;28;20041;-81
2023/10/15 09:37:53;;;;;;;0.68;0.60;;;9.50;99.90;;;;;;4986551;28;20053;-81
2023/10/15 09:40:24;;;;;;;5.05;0.93;;;9.20;99.90;;;;;;4985551;28;20461;-81
2023/10/15 09:42:54;;;;;;;1.92;1.15;;;9.30;99.90;;;;;;4986361;28;20046;-82
2023/10/15 09:45:23;;;;;;;0.57;0.40;;;10.30;99.90;;;;;;5015931;28;20050;-82
2023/10/15 09:48:00;;;;;;;2.38;0.50;;;11.70;99.90;;;;;;4985456;28;20050;-82
2023/10/15 09:50:31;;;;;;;1.55;0.40;;;12.90;99.90;;;;;;5053202;28;20401;-81
2023/10/15 09:53:01;;;;;;;5.07;0.70;;;13.80;99.90;;;;;;4985883;28;20042;-82
2023/10/15 09:55:28;;;;;;;;;;;14.50;99.90;;;;;;5054568;28;20046;-82
2023/10/15 09:57:55;;;;;;;1.13;0.60;;;15.20;99.90;;;;;;4985972;28;20013;-81
2023/10/15 10:00:32;;;;;;;5.07;0.73;;;15.70;99.90;;;;;;4986627;28;20053;-82
2023/10/15 10:03:32;;;;;;;1.75;0.50;;;16.10;99.90;;;;;;4986616;28;20034;-82
2023/10/15 10:06:37;;;;;;;3.40;0.95;;;16.40;99.90;;;;;;5053918;28;20046;-82
2023/10/15 10:09:30;;;;;;;4.35;0.85;;;16.80;99.90;;;;;;4986070;28;20513;-83
2023/10/15 10:12:21;;;;;;;2.15;0.88;;;17.20;99.90;;;;;;4986673;28;20038;-82
2023/10/15 10:15:24;;;;;;;1.75;0.40;;;17.70;99.90;;;;;;5052134;28;20486;-82
2023/10/15 10:17:51;;;;;;;1.27;0.52;;;18.00;99.90;;;;;;4986001;28;20129;-82
2023/10/15 10:20:19;;;;;;;0.95;0.32;;;18.30;99.90;;;;;;5053572;28;20046;-82
2023/10/15 10:22:58;;;;;;;1.27;0.30;;;18.30;99.90;;;;;;4984490;28;20049;-83
2023/10/15 10:25:32;;;;;;;4.78;0.65;;;18.40;99.90;;;;;;4985259;28;20041;-82
2023/10/15 10:28:11;;;;;;;2.13;0.70;;;18.70;99.90;;;;;;4985388;28;20046;-82
2023/10/15 10:30:41;;;;;;;0.65;0.25;;;18.40;99.90;;;;;;4985524;28;20041;-81
2023/10/15 10:33:09;;;;;;;1.08;0.10;;;17.20;99.90;;;;;;4985072;28;20043;-82
2023/10/15 10:35:45;;;;;;;2.72;0.50;;;15.90;99.90;;;;;;4984795;28;20111;-82
2023/10/15 10:38:17;;;;;;;1.38;0.20;;;14.50;99.90;;;;;;5053372;28;20054;-82
2023/10/15 10:40:50;;;;;;;1.33;0.22;;;13.40;99.90;;;;;;5053836;28;20046;-82
2023/10/15 10:43:27;;;;;;;2.25;0.15;;;12.60;99.90;;;;;;4986383;28;20390;-81
2023/10/15 10:45:55;;;;;;;1.75;0.22;;;12.40;99.90;;;;;;5053498;28;20088;-81
2023/10/15 10:48:23;;;;;;;1.10;0.30;;;12.60;99.90;;;;;;5053582;28;20039;-82
2023/10/15 10:51:19;;;;;;;2.40;0.43;;;13.10;99.90;;;;;;4984873;28;20054;-82
2023/10/15 10:53:57;;;;;;;2.60;0.40;;;13.80;99.90;;;;;;4986349;28;20038;-81
2023/10/15 10:56:41;;;;;;;1.90;0.20;;;13.90;99.90;;;;;;5052040;28;20042;-82
2023/10/15 10:59:08;;;;;;;2.30;0.32;;;13.50;99.90;;;;;;4986183;28;20766;-81
2023/10/15 11:01:39;;;;;;;0.20;0.10;;;13.10;99.90;;;;;;4985991;28;20069;-82
2023/10/15 11:04:08;;;;;;;2.25;0.50;;;12.50;99.90;;;;;;4985191;28;20113;-81
2023/10/15 11:06:36;;;;;;;;;;;11.90;99.90;;;;;;5053897;28;21518;-81
2023/10/15 11:09:15;;;;;;;0.45;0.20;;;11.80;99.90;;;;;;4985442;28;19943;-81
2023/10/15 11:11:45;;;;;;;0.83;0.20;;;11.90;99.90;;;;;;5052270;28;20038;-81
2023/10/15 11:14:12;;;;;;;4.45;0.85;;;12.20;99.90;;;;;;4985832;28;20285;-81
2023/10/15 11:16:40;;;;;;;1.08;0.30;;;12.80;99.90;;;;;;4985674;28;20084;-82
2023/10/15 11:19:19;;;;;;;0.60;0.32;;;13.60;99.90;;;;;;4985546;28;20039;-82
2023/10/15 11:21:46;;;;;;;0.63;0.30;;;14.60;99.90;;;;;;4985744;28;20370;-82
2023/10/15 11:24:13;;;;;;;0.40;0.15;;;15.20;99.90;;;;;;4984964;28;20440;-82
2023/10/15 11:26:42;;;;;;;2.47;0.55;;;15.20;99.90;;;;;;4985446;28;20108;-81
2023/10/15 11:29:10;;;;;;;1.30;0.65;;;15.00;99.90;;;;;;4984751;28;20493;-82
2023/10/15 11:31:43;;;;;;;0.17;0.10;;;15.00;99.90;;;;;;5050838;28;20637;-81
2023/10/15 11:34:13;;;;;;;2.60;0.30;;;15.00;99.90;;;;;;4983493;28;20073;-82
2023/10/15 11:36:43;;;;;;;1.05;0.30;;;15.00;99.90;;;;;;4984626;28;20046;-82
2023/10/15 11:39:18;;;;;;;3.67;0.82;;;15.10;99.90;;;;;;4983310;28;20121;-82
2023/10/15 11:41:50;;;;;;;4.53;0.30;;;15.20;99.90;;;;;;4983842;28;20428;-81
2023/10/15 11:44:18;;;;;;;3.35;0.40;;;15.30;99.90;;;;;;4984875;28;20069;-82
2023/10/15 11:46:46;;;;;;;0.98;0.20;;;15.10;99.90;;;;;;4984212;28;20049;-82
2023/10/15 11:49:12;;;;;;;0.40;0.10;;;14.90;99.90;;;;;;4985665;28;20038;-82
2023/10/15 11:51:40;;;;;;;3.60;0.40;;;14.60;99.90;;;;;;4985068;28;20046;-82
2023/10/15 11:54:09;;;;;;;1.10;0.20;;;14.30;99.90;;;;;;4984648;28;20046;-82
2023/10/15 11:56:38;;;;;;;0.40;0.10;;;13.70;99.90;;;;;;4985418;28;20111;-82
2023/10/15 11:59:04;;;;;;;1.58;0.70;;;13.30;99.90;;;;;;4985466;28;20042;-82
2023/10/15 12:01:30;;;;;;;0.40;0.28;;;13.00;99.90;;;;;;4986233;28;20037;-82
2023/10/15 12:04:00;;;;;;;0.47;0.10;;;12.70;99.90;;;;;;4984827;28;20103;-82
2023/10/15 12:06:26;;;;;;;0.70;0.10;;;12.70;99.90;;;;;;4984652;28;20420;-81
2023/10/15 12:08:52;;;;;;;2.38;0.35;;;13.00;99.90;;;;;;4984948;28;20102;-82
2023/10/15 12:11:19;;;;;;;0.43;0.10;;;13.40;99.90;;;;;;4985019;28;20114;-81
2023/10/15 12:13:47;;;;;;;0.50;0.30;;;13.90;99.90;;;;;;4983963;28;20099;-82
2023/10/15 12:16:14;;;;;;;1.20;0.32;;;14.50;99.90;;;;;;4984734;28;20034;-82
2023/10/15 12:18:40;;;;;;;1.20;0.32;;;14.60;99.90;;;;;;4984525;28;20046;-81
2023/10/15 12:21:06;;;;;;;1.92;0.52;;;14.30;99.90;;;;;;4984583;28;20039;-82
2023/10/15 12:23:32;;;;;;;0.55;0.20;;;14.50;99.90;;;;;;4984064;28;20482;-82
2023/10/15 12:26:00;;;;;;;1.80;0.30;;;14.90;99.90;;;;;;4984713;28;20065;-82
2023/10/15 12:28:26;;;;;;;1.23;0.40;;;15.10;99.90;;;;;;4983981;28;20038;-81
2023/10/15 12:30:54;;;;;;;0.22;0.20;;;15.10;99.90;;;;;;4984729;28;20046;-82
2023/10/15 12:33:20;;;;;;;1.55;0.20;;;14.50;99.90;;;;;;4984649;28;20079;-82
2023/10/15 12:35:47;;;;;;;1.38;0.28;;;13.80;99.90;;;;;;4983656;28;20524;-82
2023/10/15 12:38:16;;;;;;;3.22;0.20;;;13.10;99.90;;;;;;4983524;28;20050;-82
2023/10/15 12:40:45;;;;;;;;;;;12.50;99.90;;;;;;4985182;28;20034;-82
2023/10/15 12:43:11;;;;;;;2.05;0.45;;;12.00;99.90;;;;;;4983630;28;19918;-82
2023/10/15 12:45:38;;;;;;;0.17;0.10;;;11.70;99.90;;;;;;5050659;28;20057;-82
2023/10/15 12:48:08;;;;;;;0.47;0.20;;;11.40;99.90;;;;;;4983602;28;20060;-81
2023/10/15 12:50:35;;;;;;;2.03;0.40;;;11.20;99.90;;;;;;5051145;28;20046;-82
2023/10/15 12:53:01;;;;;;;1.55;0.22;;;11.10;99.90;;;;;;5051320;28;20066;-81
2023/10/15 12:55:26;;;;;;;1.38;0.10;;;11.10;99.90;;;;;;4983601;28;20104;-82
2023/10/15 12:57:53;;;;;;;1.95;0.20;;;11.10;99.90;;;;;;5051681;28;20050;-82
2023/10/15 13:00:21;;;;;;;0.88;0.22;;;11.20;99.90;;;;;;4983583;28;20104;-82
2023/10/15 13:02:50;;;;;;;0.65;0.20;;;11.30;99.90;;;;;;5049670;28;20117;-82
2023/10/15 13:05:21;;;;;;;1.10;0.40;;;11.50;99.90;;;;;;4984114;28;21872;-82
2023/10/15 13:07:51;;;;;;;0.90;0.45;;;11.90;99.90;;;;;;4984155;28;20034;-82
2023/10/15 13:10:18;;;;;;;5.72;0.63;;;12.10;99.90;;;;;;4983706;28;20314;-81
2023/10/15 13:12:45;;;;;;;0.90;0.50;;;12.20;99.90;;;;;;4984730;28;20057;-82
2023/10/15 13:15:13;;;;;;;5.03;1.20;;;12.20;99.90;;;;;;5051226;28;20042;-81
2023/10/15 13:17:39;;;;;;;2.75;0.60;;;12.10;99.90;;;;;;4984138;28;20510;-81
2023/10/15 13:20:06;;;;;;;2.75;0.98;;;12.00;99.90;;;;;;4987831;28;20497;-81
2023/10/15 13:22:33;;;;;;;4.97;0.75;;;11.80;99.90;;;;;;4987214;28;20487;-82
2023/10/15 13:24:59;;;;;;;2.80;0.70;;;11.70;99.90;;;;;;5053481;28;20047;-82
2023/10/15 13:27:25;;;;;;;1.65;0.52;;;11.50;99.90;;;;;;4986970;28;20048;-81